sensor_id;sensor_type;location;lat;lon;timestamp;pressure;altitude;pressure_sealevel;temperature;humidity
61900;BME280;47853;55.890;37.664;2022-12-07T00:03:38;100451.75;;;-8.13;52.07
61900;BME280;47853;55.890;37.664;2022-12-07T00:06:07;100468.22;;;-8.24;52.89
61900;BME280;47853;55.890;37.664;2022-12-07T00:08:33;100459.41;;;-8.09;52.40
61900;BME280;47853;55.890;37.664;2022-12-07T00:13:32;100426.28;;;-8.35;52.75
61900;BME280;47853;55.890;37.664;2022-12-07T00:16:09;100461.16;;;-8.11;52.49
61900;BME280;47853;55.890;37.664;2022-12-07T00:18:38;100430.56;;;-8.34;52.23
61900;BME280;47853;55.890;37.664;2022-12-07T00:21:10;100446.94;;;-8.38;52.73
61900;BME280;47853;55.890;37.664;2022-12-07T00:23:37;100464.75;;;-8.21;52.43
61900;BME280;47853;55.890;37.664;2022-12-07T00:26:17;100443.44;;;-8.34;52.73
61900;BME280;47853;55.890;37.664;2022-12-07T00:29:07;100438.34;;;-8.37;52.49
61900;BME280;47853;55.890;37.664;2022-12-07T00:31:35;100450.94;;;-8.16;52.67
61900;BME280;47853;55.890;37.664;2022-12-07T00:34:01;100438.19;;;-8.28;52.16
61900;BME280;47853;55.890;37.664;2022-12-07T00:36:27;100456.38;;;-8.36;52.36
61900;BME280;47853;55.890;37.664;2022-12-07T00:38:53;100442.88;;;-8.52;51.96
61900;BME280;47853;55.890;37.664;2022-12-07T00:41:21;100442.91;;;-8.56;52.49
61900;BME280;47853;55.890;37.664;2022-12-07T00:43:48;100452.16;;;-8.41;52.64
61900;BME280;47853;55.890;37.664;2022-12-07T00:46:14;100463.47;;;-8.52;52.72
61900;BME280;47853;55.890;37.664;2022-12-07T00:48:43;100436.03;;;-8.54;52.46
61900;BME280;47853;55.890;37.664;2022-12-07T00:51:10;100462.31;;;-8.31;51.93
61900;BME280;47853;55.890;37.664;2022-12-07T00:53:36;100451.34;;;-8.47;52.13
61900;BME280;47853;55.890;37.664;2022-12-07T00:56:06;100439.81;;;-8.80;53.03
61900;BME280;47853;55.890;37.664;2022-12-07T00:58:32;100463.41;;;-8.49;52.71
61900;BME280;47853;55.890;37.664;2022-12-07T01:01:00;100442.00;;;-8.52;52.62
61900;BME280;47853;55.890;37.664;2022-12-07T01:03:26;100464.09;;;-8.37;52.29
61900;BME280;47853;55.890;37.664;2022-12-07T01:05:53;100451.53;;;-8.56;52.44
61900;BME280;47853;55.890;37.664;2022-12-07T01:08:19;100461.56;;;-8.39;52.62
61900;BME280;47853;55.890;37.664;2022-12-07T01:10:45;100454.13;;;-8.59;53.16
61900;BME280;47853;55.890;37.664;2022-12-07T01:13:10;100438.97;;;-8.82;52.55
61900;BME280;47853;55.890;37.664;2022-12-07T01:15:40;100457.75;;;-8.76;53.25
61900;BME280;47853;55.890;37.664;2022-12-07T01:18:05;100446.38;;;-8.57;53.07
61900;BME280;47853;55.890;37.664;2022-12-07T01:20:30;100455.09;;;-8.69;52.57
61900;BME280;47853;55.890;37.664;2022-12-07T01:22:56;100453.19;;;-8.53;53.06
61900;BME280;47853;55.890;37.664;2022-12-07T01:25:21;100453.50;;;-8.78;52.73
61900;BME280;47853;55.890;37.664;2022-12-07T01:27:46;100439.59;;;-8.66;52.42
61900;BME280;47853;55.890;37.664;2022-12-07T01:30:12;100462.97;;;-8.82;53.07
61900;BME280;47853;55.890;37.664;2022-12-07T01:32:38;100430.25;;;-8.74;53.03
61900;BME280;47853;55.890;37.664;2022-12-07T01:35:03;100443.00;;;-8.61;52.71
61900;BME280;47853;55.890;37.664;2022-12-07T01:37:34;100442.31;;;-8.76;52.91
61900;BME280;47853;55.890;37.664;2022-12-07T01:39:59;100429.53;;;-8.83;53.04
61900;BME280;47853;55.890;37.664;2022-12-07T01:42:24;100450.06;;;-8.79;53.39
61900;BME280;47853;55.890;37.664;2022-12-07T01:47:55;100443.94;;;-8.68;52.68
61900;BME280;47853;55.890;37.664;2022-12-07T01:50:25;100446.56;;;-8.73;52.71
61900;BME280;47853;55.890;37.664;2022-12-07T01:52:53;100436.19;;;-8.67;53.29
61900;BME280;47853;55.890;37.664;2022-12-07T01:55:21;100419.97;;;-8.74;53.52
61900;BME280;47853;55.890;37.664;2022-12-07T01:57:50;100437.22;;;-8.82;52.88
61900;BME280;47853;55.890;37.664;2022-12-07T02:00:17;100431.25;;;-8.84;52.68
61900;BME280;47853;55.890;37.664;2022-12-07T02:05:11;100413.28;;;-8.89;53.41
61900;BME280;47853;55.890;37.664;2022-12-07T02:07:38;100426.88;;;-8.79;53.32
61900;BME280;47853;55.890;37.664;2022-12-07T02:10:20;100433.78;;;-8.79;53.26
61900;BME280;47853;55.890;37.664;2022-12-07T02:12:54;100431.28;;;-8.87;54.09
61900;BME280;47853;55.890;37.664;2022-12-07T02:15:21;100435.53;;;-8.84;53.70
61900;BME280;47853;55.890;37.664;2022-12-07T02:18:17;100396.44;;;-9.16;53.60
61900;BME280;47853;55.890;37.664;2022-12-07T02:29:32;100427.09;;;-8.94;54.65
61900;BME280;47853;55.890;37.664;2022-12-07T02:32:08;100432.34;;;-9.07;53.59
61900;BME280;47853;55.890;37.664;2022-12-07T02:34:49;100402.38;;;-9.11;54.30
61900;BME280;47853;55.890;37.664;2022-12-07T02:37:29;100403.13;;;-9.01;53.83
61900;BME280;47853;55.890;37.664;2022-12-07T02:40:05;100424.63;;;-9.05;54.23
61900;BME280;47853;55.890;37.664;2022-12-07T02:42:38;100418.66;;;-9.06;53.92
61900;BME280;47853;55.890;37.664;2022-12-07T02:45:07;100407.22;;;-8.84;53.96
61900;BME280;47853;55.890;37.664;2022-12-07T02:47:36;100419.50;;;-9.07;54.54
61900;BME280;47853;55.890;37.664;2022-12-07T02:50:04;100411.72;;;-9.02;54.15
61900;BME280;47853;55.890;37.664;2022-12-07T02:52:30;100411.91;;;-9.18;54.02
61900;BME280;47853;55.890;37.664;2022-12-07T02:54:55;100401.72;;;-9.28;54.45
61900;BME280;47853;55.890;37.664;2022-12-07T03:00:14;100422.91;;;-9.03;54.32
61900;BME280;47853;55.890;37.664;2022-12-07T03:03:00;100407.44;;;-9.03;53.84
61900;BME280;47853;55.890;37.664;2022-12-07T03:11:06;100414.00;;;-8.77;54.14
61900;BME280;47853;55.890;37.664;2022-12-07T03:13:41;100416.59;;;-8.79;54.34
61900;BME280;47853;55.890;37.664;2022-12-07T03:16:20;100429.03;;;-9.13;54.72
61900;BME280;47853;55.890;37.664;2022-12-07T03:18:55;100419.56;;;-9.13;54.72
61900;BME280;47853;55.890;37.664;2022-12-07T03:21:46;100421.94;;;-8.94;54.50
61900;BME280;47853;55.890;37.664;2022-12-07T03:24:20;100399.59;;;-8.92;54.38
61900;BME280;47853;55.890;37.664;2022-12-07T03:26:52;100421.97;;;-8.97;53.98
61900;BME280;47853;55.890;37.664;2022-12-07T03:29:25;100416.19;;;-9.18;54.97
61900;BME280;47853;55.890;37.664;2022-12-07T03:32:02;100410.22;;;-9.20;54.97
61900;BME280;47853;55.890;37.664;2022-12-07T03:34:33;100414.59;;;-9.30;55.50
61900;BME280;47853;55.890;37.664;2022-12-07T03:37:07;100418.72;;;-9.13;55.32
61900;BME280;47853;55.890;37.664;2022-12-07T03:40:19;100421.31;;;-9.15;54.94
61900;BME280;47853;55.890;37.664;2022-12-07T03:42:36;100421.53;;;-9.35;56.09
61900;BME280;47853;55.890;37.664;2022-12-07T03:45:02;100416.25;;;-9.24;55.47
61900;BME280;47853;55.890;37.664;2022-12-07T03:50:29;100424.09;;;-9.34;55.78
61900;BME280;47853;55.890;37.664;2022-12-07T03:53:00;100407.75;;;-9.31;56.06
61900;BME280;47853;55.890;37.664;2022-12-07T03:55:32;100399.16;;;-9.27;55.60
61900;BME280;47853;55.890;37.664;2022-12-07T03:58:06;100419.78;;;-9.32;55.77
61900;BME280;47853;55.890;37.664;2022-12-07T04:00:32;100405.22;;;-9.34;56.19
61900;BME280;47853;55.890;37.664;2022-12-07T04:02:58;100405.88;;;-9.15;55.81
61900;BME280;47853;55.890;37.664;2022-12-07T04:05:23;100419.84;;;-9.38;56.36
61900;BME280;47853;55.890;37.664;2022-12-07T04:07:49;100417.28;;;-9.38;55.80
61900;BME280;47853;55.890;37.664;2022-12-07T04:10:15;100399.38;;;-9.50;56.71
61900;BME280;47853;55.890;37.664;2022-12-07T04:12:40;100414.63;;;-9.32;56.75
61900;BME280;47853;55.890;37.664;2022-12-07T04:15:06;100415.47;;;-9.29;56.42
61900;BME280;47853;55.890;37.664;2022-12-07T04:17:31;100400.22;;;-9.48;56.79
61900;BME280;47853;55.890;37.664;2022-12-07T04:19:57;100388.25;;;-9.52;56.87
61900;BME280;47853;55.890;37.664;2022-12-07T04:22:22;100402.84;;;-9.53;56.98
61900;BME280;47853;55.890;37.664;2022-12-07T04:24:47;100401.72;;;-9.27;56.65
61900;BME280;47853;55.890;37.664;2022-12-07T04:27:13;100391.84;;;-9.69;57.09
61900;BME280;47853;55.890;37.664;2022-12-07T04:29:38;100373.75;;;-9.58;57.76
61900;BME280;47853;55.890;37.664;2022-12-07T04:32:04;100396.78;;;-9.50;57.70
61900;BME280;47853;55.890;37.664;2022-12-07T04:34:29;100404.63;;;-9.63;57.84
61900;BME280;47853;55.890;37.664;2022-12-07T04:36:54;100404.72;;;-9.67;58.18
61900;BME280;47853;55.890;37.664;2022-12-07T04:39:28;100388.47;;;-9.74;58.12
61900;BME280;47853;55.890;37.664;2022-12-07T04:41:54;100397.66;;;-9.50;58.30
61900;BME280;47853;55.890;37.664;2022-12-07T04:47:41;100402.13;;;-9.69;58.70
61900;BME280;47853;55.890;37.664;2022-12-07T04:58:37;100405.59;;;-9.71;59.46
61900;BME280;47853;55.890;37.664;2022-12-07T05:01:02;100406.75;;;-10.07;59.97
61900;BME280;47853;55.890;37.664;2022-12-07T05:06:30;100401.59;;;-10.03;60.37
61900;BME280;47853;55.890;37.664;2022-12-07T05:08:56;100387.06;;;-10.12;60.84
61900;BME280;47853;55.890;37.664;2022-12-07T05:11:21;100367.53;;;-10.29;61.08
61900;BME280;47853;55.890;37.664;2022-12-07T05:13:47;100417.16;;;-10.27;61.44
61900;BME280;47853;55.890;37.664;2022-12-07T05:16:12;100413.91;;;-10.46;62.29
61900;BME280;47853;55.890;37.664;2022-12-07T05:27:26;100426.78;;;-10.55;63.25
61900;BME280;47853;55.890;37.664;2022-12-07T05:30:11;100413.94;;;-10.55;63.67
61900;BME280;47853;55.890;37.664;2022-12-07T05:32:56;100412.25;;;-10.56;63.45
61900;BME280;47853;55.890;37.664;2022-12-07T05:52:40;100415.69;;;-10.62;64.92
61900;BME280;47853;55.890;37.664;2022-12-07T06:01:10;100389.31;;;-10.90;66.37
61900;BME280;47853;55.890;37.664;2022-12-07T06:15:27;100407.13;;;-10.61;66.36
61900;BME280;47853;55.890;37.664;2022-12-07T06:17:53;100390.91;;;-10.66;66.38
61900;BME280;47853;55.890;37.664;2022-12-07T06:20:18;100388.94;;;-10.31;66.06
61900;BME280;47853;55.890;37.664;2022-12-07T06:22:43;100393.38;;;-10.51;66.26
61900;BME280;47853;55.890;37.664;2022-12-07T06:25:09;100383.56;;;-10.00;65.31
61900;BME280;47853;55.890;37.664;2022-12-07T06:27:34;100386.19;;;-10.08;65.17
61900;BME280;47853;55.890;37.664;2022-12-07T06:30:00;100402.34;;;-9.92;65.04
61900;BME280;47853;55.890;37.664;2022-12-07T06:32:25;100373.84;;;-9.69;64.81
61900;BME280;47853;55.890;37.664;2022-12-07T06:34:50;100400.03;;;-9.31;63.76
61900;BME280;47853;55.890;37.664;2022-12-07T06:37:16;100387.78;;;-9.09;63.60
61900;BME280;47853;55.890;37.664;2022-12-07T07:22:45;100401.50;;;-7.88;60.69
61900;BME280;47853;55.890;37.664;2022-12-07T07:25:51;100330.06;;;-8.91;61.33
61900;BME280;47853;55.890;37.664;2022-12-07T07:44:13;100288.44;;;-8.09;59.17
61900;BME280;47853;55.890;37.664;2022-12-07T07:47:04;100301.66;;;-8.31;59.88
61900;BME280;47853;55.890;37.664;2022-12-07T07:56:31;100340.72;;;-8.03;58.62
61900;BME280;47853;55.890;37.664;2022-12-07T08:56:08;100249.97;;;-7.76;57.03
61900;BME280;47853;55.890;37.664;2022-12-07T09:02:26;100328.34;;;-7.38;56.51
61900;BME280;47853;55.890;37.664;2022-12-07T09:05:28;100350.91;;;-7.46;56.51
61900;BME280;47853;55.890;37.664;2022-12-07T09:18:21;100321.56;;;-6.24;54.29
61900;BME280;47853;55.890;37.664;2022-12-07T09:27:18;100248.28;;;-6.58;53.23
61900;BME280;47853;55.890;37.664;2022-12-07T09:42:39;100259.66;;;-7.03;52.76
61900;BME280;47853;55.890;37.664;2022-12-07T09:45:35;100288.44;;;-6.80;53.60
61900;BME280;47853;55.890;37.664;2022-12-07T09:54:27;100307.09;;;-5.98;51.34
61900;BME280;47853;55.890;37.664;2022-12-07T10:00:27;100255.84;;;-6.50;51.24
61900;BME280;47853;55.890;37.664;2022-12-07T10:09:24;100244.00;;;-5.92;50.89
61900;BME280;47853;55.890;37.664;2022-12-07T10:12:14;100169.78;;;-6.88;50.94
61900;BME280;47853;55.890;37.664;2022-12-07T10:21:26;100210.13;;;-7.20;52.04
61900;BME280;47853;55.890;37.664;2022-12-07T11:01:22;100174.06;;;-6.87;51.23
61900;BME280;47853;55.890;37.664;2022-12-07T11:06:43;100107.50;;;-6.44;50.06
61900;BME280;47853;55.890;37.664;2022-12-07T11:09:36;100237.94;;;-5.91;50.03
61900;BME280;47853;55.890;37.664;2022-12-07T11:21:38;100228.44;;;-6.22;50.97
61900;BME280;47853;55.890;37.664;2022-12-07T11:37:16;100211.47;;;-6.67;52.70
61900;BME280;47853;55.890;37.664;2022-12-07T11:43:31;100171.03;;;-7.03;52.45
61900;BME280;47853;55.890;37.664;2022-12-07T11:55:59;100215.34;;;-6.84;53.39
61900;BME280;47853;55.890;37.664;2022-12-07T12:45:27;100178.50;;;-8.13;57.91
61900;BME280;47853;55.890;37.664;2022-12-07T13:41:44;100194.16;;;-9.26;63.34
61900;BME280;47853;55.890;37.664;2022-12-07T13:50:27;100161.75;;;-9.40;63.83
61900;BME280;47853;55.890;37.664;2022-12-07T13:53:24;100071.94;;;-10.16;63.93
61900;BME280;47853;55.890;37.664;2022-12-07T14:15:37;100150.09;;;-9.66;65.99
61900;BME280;47853;55.890;37.664;2022-12-07T14:18:28;100031.41;;;-10.58;65.76
61900;BME280;47853;55.890;37.664;2022-12-07T14:21:24;100028.91;;;-10.66;65.79
61900;BME280;47853;55.890;37.664;2022-12-07T14:30:19;100058.56;;;-10.40;66.57
61900;BME280;47853;55.890;37.664;2022-12-07T14:33:25;100038.13;;;-10.48;66.81
61900;BME280;47853;55.890;37.664;2022-12-07T14:36:14;100150.19;;;-9.72;66.61
61900;BME280;47853;55.890;37.664;2022-12-07T14:48:29;99993.19;;;-10.85;66.63
61900;BME280;47853;55.890;37.664;2022-12-07T14:51:36;100018.22;;;-11.07;67.58
61900;BME280;47853;55.890;37.664;2022-12-07T14:57:55;100053.59;;;-10.56;67.44
61900;BME280;47853;55.890;37.664;2022-12-07T15:00:36;100135.97;;;-10.01;67.74
61900;BME280;47853;55.890;37.664;2022-12-07T15:03:29;100153.25;;;-10.11;68.45
61900;BME280;47853;55.890;37.664;2022-12-07T15:47:16;99997.44;;;-10.82;69.04
61900;BME280;47853;55.890;37.664;2022-12-07T15:49:42;99984.59;;;-10.81;68.46
61900;BME280;47853;55.890;37.664;2022-12-07T15:52:07;99970.06;;;-10.83;68.73
61900;BME280;47853;55.890;37.664;2022-12-07T15:54:33;99988.03;;;-10.85;68.56
61900;BME280;47853;55.890;37.664;2022-12-07T15:57:18;99969.13;;;-10.74;68.53
61900;BME280;47853;55.890;37.664;2022-12-07T15:59:44;99972.66;;;-10.85;68.59
61900;BME280;47853;55.890;37.664;2022-12-07T16:05:23;99985.13;;;-10.54;68.25
61900;BME280;47853;55.890;37.664;2022-12-07T16:07:49;100060.09;;;-10.28;68.41
61900;BME280;47853;55.890;37.664;2022-12-07T16:13:50;99994.63;;;-10.62;69.05
61900;BME280;47853;55.890;37.664;2022-12-07T16:26:09;99950.69;;;-11.09;69.72
61900;BME280;47853;55.890;37.664;2022-12-07T16:38:11;100082.22;;;-10.16;70.27
61900;BME280;47853;55.890;37.664;2022-12-07T16:40:48;100026.22;;;-10.57;69.96
61900;BME280;47853;55.890;37.664;2022-12-07T16:43:17;100036.47;;;-10.54;70.52
61900;BME280;47853;55.890;37.664;2022-12-07T16:45:51;100101.94;;;-10.18;70.47
61900;BME280;47853;55.890;37.664;2022-12-07T16:48:41;99913.94;;;-11.10;69.97
61900;BME280;47853;55.890;37.664;2022-12-07T17:23:51;100053.00;;;-10.09;70.26
61900;BME280;47853;55.890;37.664;2022-12-07T17:49:07;99996.09;;;-10.42;69.49
61900;BME280;47853;55.890;37.664;2022-12-07T17:58:38;99878.94;;;-11.15;70.29
61900;BME280;47853;55.890;37.664;2022-12-07T18:07:26;100037.63;;;-10.11;70.14
61900;BME280;47853;55.890;37.664;2022-12-07T18:10:15;99934.09;;;-10.79;70.41
61900;BME280;47853;55.890;37.664;2022-12-07T18:16:44;100023.03;;;-10.10;70.46
61900;BME280;47853;55.890;37.664;2022-12-07T18:19:48;99989.28;;;-10.45;70.76
61900;BME280;47853;55.890;37.664;2022-12-07T18:22:39;99930.84;;;-10.91;70.83
61900;BME280;47853;55.890;37.664;2022-12-07T18:25:25;100033.22;;;-10.02;71.06
61900;BME280;47853;55.890;37.664;2022-12-07T18:32:06;99988.28;;;-10.36;70.25
61900;BME280;47853;55.890;37.664;2022-12-07T18:47:16;99959.25;;;-10.41;71.09
61900;BME280;47853;55.890;37.664;2022-12-07T18:50:02;99848.03;;;-11.03;70.64
61900;BME280;47853;55.890;37.664;2022-12-07T18:56:08;99853.19;;;-11.09;71.02
61900;BME280;47853;55.890;37.664;2022-12-07T21:00:51;99973.53;;;-10.23;73.09
61900;BME280;47853;55.890;37.664;2022-12-07T21:03:52;99802.16;;;-11.29;72.90
61900;BME280;47853;55.890;37.664;2022-12-07T21:42:44;99818.16;;;-11.09;73.34
61900;BME280;47853;55.890;37.664;2022-12-07T22:27:09;99818.25;;;-11.15;74.05
